Latest Weather Observations for Frankston

IDV60901

Issued at 4:51 am EDT Friday 22 February 2019 (issued every 10 minutes, with the page automatically refreshed every 10 minutes)

About weather observations | Map of Melbourne area stations | Latest observations for Melbourne area | Other Formats
Station Details ID: 086371 Name: FRANKSTON AWS Lat: -38.15 Lon: 145.12 Height: 6.0 m
Data from the previous 72 hours. | See also: Recent months at Frankston
Date/Time
EDT
Temp
°C
App
Temp
°C
Dew
Point
°C
Rel
Hum
%
Delta-T
°C
Wind Press
QNH
hPa
Press
MSL
hPa
Rain since
9am
mm
Dir  Spd
km/h
Gust
km/h
Spd
kts
Gust
kts
22/04:30am - - - - - SE 7 11 4 6 - - -
22/04:00am - - - - - SSW 7 9 4 5 - - -
22/03:30am - - - - - SSW 2 7 1 4 - - -
22/03:00am - - - - - SW 7 11 4 6 - - -
22/02:30am - - - - - SW 9 13 5 7 - - -
22/02:00am - - - - - SW 6 9 3 5 - - -
22/01:30am - - - - - SSW 9 11 5 6 - - -
22/01:00am - - - - - SSW 7 9 4 5 - - -
22/12:30am - - - - - SSW 9 11 5 6 - - -
22/12:00am - - - - - S 6 7 3 4 - - -
 
Date/Time
EDT
Temp
°C
App
Temp
°C
Dew
Point
°C
Rel
Hum
%
Delta-T
°C
Wind Press
QNH
hPa
Press
MSL
hPa
Rain since
9am
mm
Dir  Spd
km/h
Gust
km/h
Spd
kts
Gust
kts
21/11:30pm - - - - - SSW 7 9 4 5 - - -
21/11:00pm - - - - - SSW 7 9 4 5 - - -
21/10:30pm - - - - - CALM 0 0 0 0 - - -
21/10:00pm - - - - - S 4 7 2 4 - - -
21/09:30pm - - - - - SSW 7 9 4 5 - - -
21/09:00pm - - - - - SSW 9 13 5 7 - - -
21/08:30pm - - - - - S 9 15 5 8 - - -
21/08:00pm - - - - - SSW 13 19 7 10 - - -
21/07:30pm - - - - - SSW 11 17 6 9 - - -
21/07:00pm - - - - - S 13 20 7 11 - - -
21/06:30pm - - - - - S 13 22 7 12 - - -
21/06:00pm - - - - - SSW 17 28 9 15 - - -
21/05:30pm - - - - - S 15 26 8 14 - - -
21/05:00pm - - - - - SW 20 46 11 25 - - -
21/04:50pm - - - - - WSW 30 48 16 26 - - -
21/04:30pm - - - - - WSW 26 44 14 24 - - -
21/04:00pm - - - - - WSW 30 39 16 21 - - -
21/03:30pm - - - - - WSW 26 41 14 22 - - -
21/03:00pm - - - - - WSW 33 37 18 20 - - -
21/02:30pm - - - - - WSW 33 39 18 21 - - -
21/02:00pm - - - - - WSW 30 35 16 19 - - -
21/01:30pm - - - - - W 26 30 14 16 - - -
21/01:00pm - - - - - W 20 26 11 14 - - -
21/12:30pm - - - - - WSW 22 28 12 15 - - -
21/12:00pm - - - - - WSW 24 30 13 16 - - -
21/11:30am - - - - - WSW 22 30 12 16 - - -
21/11:00am - - - - - SW 13 22 7 12 - - -
21/10:30am - - - - - SW 17 26 9 14 - - -
21/10:00am - - - - - SW 15 22 8 12 - - -
21/09:30am - - - - - SSW 13 19 7 10 - - -
21/09:00am - - - - - SSW 11 19 6 10 - - -
21/08:30am - - - - - SSW 11 15 6 8 - - -
21/08:00am - - - - - SSW 11 19 6 10 - - -
21/07:30am - - - - - S 11 13 6 7 - - -
21/07:00am - - - - - S 11 15 6 8 - - -
21/06:30am - - - - - SSW 9 15 5 8 - - -
21/06:00am - - - - - S 9 13 5 7 - - -
21/05:30am - - - - - S 9 13 5 7 - - -
21/05:00am - - - - - S 11 15 6 8 - - -
21/04:30am - - - - - S 11 15 6 8 - - -
21/04:00am - - - - - S 9 15 5 8 - - -
21/03:30am - - - - - S 9 13 5 7 - - -
21/03:00am - - - - - S 9 11 5 6 - - -
21/02:30am - - - - - SSW 9 13 5 7 - - -
21/02:00am - - - - - SSW 7 13 4 7 - - -
21/01:30am - - - - - SSW 11 15 6 8 - - -
21/01:00am - - - - - SW 17 22 9 12 - - -
21/12:30am - - - - - SW 15 20 8 11 - - -
21/12:00am - - - - - SW 24 35 13 19 - - -
 
Date/Time
EDT
Temp
°C
App
Temp
°C
Dew
Point
°C
Rel
Hum
%
Delta-T
°C
Wind Press
QNH
hPa
Press
MSL
hPa
Rain since
9am
mm
Dir  Spd
km/h
Gust
km/h
Spd
kts
Gust
kts
20/11:49pm - - - - - SW 28 41 15 22 - - -
20/11:30pm - - - - - SW 17 22 9 12 - - -
20/11:00pm - - - - - SW 15 20 8 11 - - -
20/10:30pm - - - - - SW 17 26 9 14 - - -
20/10:00pm - - - - - SSW 9 13 5 7 - - -
20/09:30pm - - - - - S 6 11 3 6 - - -
20/09:00pm - - - - - SSW 9 11 5 6 - - -
20/08:30pm - - - - - SW 15 22 8 12 - - -
20/08:00pm - - - - - WSW 20 26 11 14 - - -
20/07:30pm - - - - - WSW 24 28 13 15 - - -
20/07:00pm - - - - - WSW 26 28 14 15 - - -
20/06:30pm - - - - - WSW 28 32 15 17 - - -
20/06:00pm - - - - - WSW 30 35 16 19 - - -
20/05:30pm - - - - - W 22 26 12 14 - - -
20/05:00pm - - - - - W 20 24 11 13 - - -
20/04:30pm - - - - - W 20 24 11 13 - - -
20/04:00pm - - - - - WNW 7 13 4 7 - - -
20/03:30pm - - - - - CALM 0 0 0 0 - - -
20/03:00pm - - - - - N 9 11 5 6 - - -
20/02:30pm - - - - - NNW 11 13 6 7 - - -
20/02:00pm - - - - - NNW 13 17 7 9 - - -
20/01:30pm - - - - - W 15 20 8 11 - - -
20/01:00pm - - - - - W 20 26 11 14 - - -
20/12:30pm - - - - - W 22 30 12 16 - - -
20/12:00pm - - - - - W 24 30 13 16 - - -
20/11:30am - - - - - W 22 32 12 17 - - -
20/11:00am - - - - - W 24 30 13 16 - - -
20/10:30am - - - - - W 26 32 14 17 - - -
20/10:00am - - - - - WNW 24 33 13 18 - - -
20/09:30am - - - - - WNW 24 30 13 16 - - -
20/09:00am - - - - - WNW 20 30 11 16 - - -
20/08:30am - - - - - WNW 20 26 11 14 - - -
20/08:00am - - - - - W 17 22 9 12 - - -
20/07:30am - - - - - WNW 24 30 13 16 - - -
20/07:00am - - - - - WNW 24 28 13 15 - - -
20/06:30am - - - - - W 17 22 9 12 - - -
20/06:00am - - - - - WSW 24 30 13 16 - - -
20/05:30am - - - - - W 26 32 14 17 - - -
20/05:00am - - - - - W 22 28 12 15 - - -
20/04:30am - - - - - W 20 28 11 15 - - -
20/04:00am - - - - - SW 15 26 8 14 - - -
20/03:30am - - - - - WSW 13 19 7 10 - - -
20/03:00am - - - - - W 19 28 10 15 - - -
20/02:30am - - - - - SE 7 9 4 5 - - -
20/02:00am - - - - - SE 9 9 5 5 - - -
20/01:30am - - - - - SE 9 9 5 5 - - -
20/01:00am - - - - - SSE 9 11 5 6 - - -
20/12:30am - - - - - SSE 9 11 5 6 - - -
20/12:00am - - - - - SSE 9 9 5 5 - - -
 
Date/Time
EDT
Temp
°C
App
Temp
°C
Dew
Point
°C
Rel
Hum
%
Delta-T
°C
Wind Press
QNH
hPa
Press
MSL
hPa
Rain since
9am
mm
Dir  Spd
km/h
Gust
km/h
Spd
kts
Gust
kts
19/11:30pm - - - - - CALM 0 7 0 4 - - -
19/11:00pm - - - - - CALM 0 0 0 0 - - -
19/10:30pm - - - - - ESE 2 6 1 3 - - -
19/10:00pm - - - - - SSE 7 7 4 4 - - -
19/09:30pm - - - - - S 7 11 4 6 - - -
19/09:00pm - - - - - SW 11 13 6 7 - - -
19/08:30pm - - - - - S 11 17 6 9 - - -
19/08:00pm - - - - - SSW 13 19 7 10 - - -
19/07:30pm - - - - - SSW 13 24 7 13 - - -
19/07:00pm - - - - - SW 17 26 9 14 - - -
19/06:30pm - - - - - WSW 28 37 15 20 - - -
19/06:00pm - - - - - WSW 32 37 17 20 - - -
19/05:30pm - - - - - WSW 30 33 16 18 - - -
19/05:00pm - - - - - WSW 32 35 17 19 - - -
19/04:30pm - - - - - WSW 30 33 16 18 - - -
19/04:00pm - - - - - WSW 32 35 17 19 - - -
19/03:30pm - - - - - WSW 32 37 17 20 - - -
19/03:00pm - - - - - WSW 28 33 15 18 - - -
19/02:30pm - - - - - WSW 35 39 19 21 - - -
19/02:00pm - - - - - WSW 32 37 17 20 - - -
19/01:30pm - - - - - WSW 22 32 12 17 - - -
19/01:00pm - - - - - WSW 22 28 12 15 - - -
19/12:30pm - - - - - WSW 19 26 10 14 - - -
19/12:00pm - - - - - WSW 26 33 14 18 - - -
19/11:30am - - - - - W 20 26 11 14 - - -
19/11:00am - - - - - W 17 24 9 13 - - -
19/10:30am - - - - - W 11 17 6 9 - - -
19/10:00am - - - - - SW 9 13 5 7 - - -
19/09:30am - - - - - WSW 30 44 16 24 - - -
19/09:00am - - - - - W 26 33 14 18 - - -
19/08:30am - - - - - W 28 37 15 20 - - -
19/08:00am - - - - - SW 15 22 8 12 - - -
19/07:30am - - - - - WSW 26 33 14 18 - - -
19/07:00am - - - - - SSW 9 13 5 7 - - -
19/06:30am - - - - - SW 13 24 7 13 - - -
19/06:00am - - - - - W 28 35 15 19 - - -
19/05:30am - - - - - WSW 26 33 14 18 - - -
19/05:00am - - - - - SW 15 30 8 16 - - -

Latest Capital City Observations: Canberra | Sydney | Melbourne | Brisbane | Adelaide | Perth | Hobart | Darwin

Other formats

Comma delimited format used in spreadsheet applications
http://www.bom.gov.au/fwo/IDV60901/IDV60901.94871.axf

JavaScript Object Notation format (JSON) in row-major order
http://www.bom.gov.au/fwo/IDV60901/IDV60901.94871.json

Data quality

Most of these data are generated automatically and are frequently updated. Quality checks on data are not normally performed. It is possible for incorrect values to appear. Refer to information at About Latest Weather Observations and please check the disclaimer before using these data.